sensor_id;sensor_type;location;lat;lon;timestamp;temperature;humidity
46091;DHT22;31826;53.572;10.170;2023-05-10T00:00:53;13.60;90.00
46091;DHT22;31826;53.572;10.170;2023-05-10T00:03:19;13.60;90.00
46091;DHT22;31826;53.572;10.170;2023-05-10T00:05:44;13.60;90.00
46091;DHT22;31826;53.572;10.170;2023-05-10T00:08:10;13.60;90.00
46091;DHT22;31826;53.572;10.170;2023-05-10T00:10:36;13.60;90.10
46091;DHT22;31826;53.572;10.170;2023-05-10T00:13:03;13.60;90.10
46091;DHT22;31826;53.572;10.170;2023-05-10T00:15:28;13.60;90.20
46091;DHT22;31826;53.572;10.170;2023-05-10T00:17:56;13.60;90.30
46091;DHT22;31826;53.572;10.170;2023-05-10T00:20:22;13.50;90.20
46091;DHT22;31826;53.572;10.170;2023-05-10T00:22:47;13.60;90.30
46091;DHT22;31826;53.572;10.170;2023-05-10T00:25:13;13.60;90.30
46091;DHT22;31826;53.572;10.170;2023-05-10T00:27:39;13.50;90.40
46091;DHT22;31826;53.572;10.170;2023-05-10T00:30:05;13.50;90.50
46091;DHT22;31826;53.572;10.170;2023-05-10T00:32:31;13.40;90.50
46091;DHT22;31826;53.572;10.170;2023-05-10T00:34:57;13.40;90.60
46091;DHT22;31826;53.572;10.170;2023-05-10T00:37:23;13.30;90.60
46091;DHT22;31826;53.572;10.170;2023-05-10T00:39:49;13.30;90.70
46091;DHT22;31826;53.572;10.170;2023-05-10T00:42:14;13.30;90.70
46091;DHT22;31826;53.572;10.170;2023-05-10T00:44:40;13.30;90.80
46091;DHT22;31826;53.572;10.170;2023-05-10T00:47:06;13.30;90.80
46091;DHT22;31826;53.572;10.170;2023-05-10T00:49:32;13.30;90.80
46091;DHT22;31826;53.572;10.170;2023-05-10T00:51:58;13.20;90.90
46091;DHT22;31826;53.572;10.170;2023-05-10T00:54:24;13.20;91.20
46091;DHT22;31826;53.572;10.170;2023-05-10T00:56:50;13.20;91.00
46091;DHT22;31826;53.572;10.170;2023-05-10T00:59:16;13.10;91.10
46091;DHT22;31826;53.572;10.170;2023-05-10T01:01:47;13.10;91.30
46091;DHT22;31826;53.572;10.170;2023-05-10T01:04:14;13.00;91.30
46091;DHT22;31826;53.572;10.170;2023-05-10T01:06:40;13.00;91.30
46091;DHT22;31826;53.572;10.170;2023-05-10T01:09:06;13.00;91.40
46091;DHT22;31826;53.572;10.170;2023-05-10T01:11:37;12.90;91.50
46091;DHT22;31826;53.572;10.170;2023-05-10T01:14:03;12.90;91.60
46091;DHT22;31826;53.572;10.170;2023-05-10T01:16:33;12.90;91.60
46091;DHT22;31826;53.572;10.170;2023-05-10T01:19:00;12.90;91.70
46091;DHT22;31826;53.572;10.170;2023-05-10T01:21:28;12.80;91.70
46091;DHT22;31826;53.572;10.170;2023-05-10T01:32:21;12.70;92.00
46091;DHT22;31826;53.572;10.170;2023-05-10T01:37:42;12.70;92.10
46091;DHT22;31826;53.572;10.170;2023-05-10T01:40:26;12.60;92.10
46091;DHT22;31826;53.572;10.170;2023-05-10T01:43:01;12.60;92.40
46091;DHT22;31826;53.572;10.170;2023-05-10T01:45:37;12.60;92.50
46091;DHT22;31826;53.572;10.170;2023-05-10T01:48:07;12.50;92.50
46091;DHT22;31826;53.572;10.170;2023-05-10T01:50:36;12.50;92.50
46091;DHT22;31826;53.572;10.170;2023-05-10T01:53:07;12.50;92.50
46091;DHT22;31826;53.572;10.170;2023-05-10T01:55:35;12.50;92.60
46091;DHT22;31826;53.572;10.170;2023-05-10T01:58:10;12.50;92.60
46091;DHT22;31826;53.572;10.170;2023-05-10T02:00:40;12.50;92.70
46091;DHT22;31826;53.572;10.170;2023-05-10T02:03:08;12.40;92.90
46091;DHT22;31826;53.572;10.170;2023-05-10T02:05:36;12.40;93.00
46091;DHT22;31826;53.572;10.170;2023-05-10T02:08:05;12.30;93.10
46091;DHT22;31826;53.572;10.170;2023-05-10T02:10:33;12.30;93.20
46091;DHT22;31826;53.572;10.170;2023-05-10T02:12:59;12.30;93.30
46091;DHT22;31826;53.572;10.170;2023-05-10T02:15:26;12.20;93.30
46091;DHT22;31826;53.572;10.170;2023-05-10T02:17:55;12.20;93.50
46091;DHT22;31826;53.572;10.170;2023-05-10T02:20:22;12.10;93.60
46091;DHT22;31826;53.572;10.170;2023-05-10T02:22:53;12.20;93.70
46091;DHT22;31826;53.572;10.170;2023-05-10T02:25:21;12.20;93.80
46091;DHT22;31826;53.572;10.170;2023-05-10T02:27:48;12.20;93.90
46091;DHT22;31826;53.572;10.170;2023-05-10T02:30:14;12.10;93.80
46091;DHT22;31826;53.572;10.170;2023-05-10T02:32:41;12.00;93.80
46091;DHT22;31826;53.572;10.170;2023-05-10T02:35:08;12.00;94.10
46091;DHT22;31826;53.572;10.170;2023-05-10T02:37:37;12.00;94.20
46091;DHT22;31826;53.572;10.170;2023-05-10T02:40:04;12.00;94.20
46091;DHT22;31826;53.572;10.170;2023-05-10T02:42:33;12.00;94.10
46091;DHT22;31826;53.572;10.170;2023-05-10T02:45:01;12.00;94.30
46091;DHT22;31826;53.572;10.170;2023-05-10T02:47:28;12.00;94.40
46091;DHT22;31826;53.572;10.170;2023-05-10T02:49:55;11.90;94.60
46091;DHT22;31826;53.572;10.170;2023-05-10T02:52:26;11.90;94.70
46091;DHT22;31826;53.572;10.170;2023-05-10T02:54:55;11.80;94.80
46091;DHT22;31826;53.572;10.170;2023-05-10T02:57:28;11.80;94.90
46091;DHT22;31826;53.572;10.170;2023-05-10T02:59:54;11.80;95.10
46091;DHT22;31826;53.572;10.170;2023-05-10T03:02:21;11.90;95.10
46091;DHT22;31826;53.572;10.170;2023-05-10T03:04:46;11.80;95.10
46091;DHT22;31826;53.572;10.170;2023-05-10T03:07:13;11.80;95.20
46091;DHT22;31826;53.572;10.170;2023-05-10T03:09:39;11.70;95.30
46091;DHT22;31826;53.572;10.170;2023-05-10T03:15:00;11.70;95.50
46091;DHT22;31826;53.572;10.170;2023-05-10T03:20:16;11.70;95.70
46091;DHT22;31826;53.572;10.170;2023-05-10T03:22:49;11.70;95.70
46091;DHT22;31826;53.572;10.170;2023-05-10T03:25:16;11.60;95.90
46091;DHT22;31826;53.572;10.170;2023-05-10T03:27:44;11.60;96.00
46091;DHT22;31826;53.572;10.170;2023-05-10T03:30:12;11.60;96.00
46091;DHT22;31826;53.572;10.170;2023-05-10T03:32:38;11.60;95.90
46091;DHT22;31826;53.572;10.170;2023-05-10T03:35:11;11.50;96.50
46091;DHT22;31826;53.572;10.170;2023-05-10T03:37:37;11.60;96.30
46091;DHT22;31826;53.572;10.170;2023-05-10T03:40:04;11.60;96.40
46091;DHT22;31826;53.572;10.170;2023-05-10T03:42:29;11.50;96.50
46091;DHT22;31826;53.572;10.170;2023-05-10T03:44:56;11.60;96.70
46091;DHT22;31826;53.572;10.170;2023-05-10T03:47:21;11.60;96.60
46091;DHT22;31826;53.572;10.170;2023-05-10T03:49:47;11.60;96.50
46091;DHT22;31826;53.572;10.170;2023-05-10T03:52:13;11.50;96.60
46091;DHT22;31826;53.572;10.170;2023-05-10T03:54:38;11.50;96.80
46091;DHT22;31826;53.572;10.170;2023-05-10T03:57:04;11.50;96.80
46091;DHT22;31826;53.572;10.170;2023-05-10T03:59:30;11.60;96.90
46091;DHT22;31826;53.572;10.170;2023-05-10T04:01:56;11.60;96.90
46091;DHT22;31826;53.572;10.170;2023-05-10T04:04:22;11.60;96.90
46091;DHT22;31826;53.572;10.170;2023-05-10T04:06:48;11.60;96.90
46091;DHT22;31826;53.572;10.170;2023-05-10T04:09:14;11.60;97.10
46091;DHT22;31826;53.572;10.170;2023-05-10T04:11:40;11.50;97.10
46091;DHT22;31826;53.572;10.170;2023-05-10T04:14:06;11.60;97.00
46091;DHT22;31826;53.572;10.170;2023-05-10T04:16:31;11.70;97.20
46091;DHT22;31826;53.572;10.170;2023-05-10T04:18:57;11.60;97.00
46091;DHT22;31826;53.572;10.170;2023-05-10T04:21:23;11.70;97.10
46091;DHT22;31826;53.572;10.170;2023-05-10T04:23:48;11.70;97.00
46091;DHT22;31826;53.572;10.170;2023-05-10T04:26:14;11.60;97.30
46091;DHT22;31826;53.572;10.170;2023-05-10T04:28:40;11.70;97.20
46091;DHT22;31826;53.572;10.170;2023-05-10T04:31:07;11.70;97.10
46091;DHT22;31826;53.572;10.170;2023-05-10T04:33:34;11.70;97.40
46091;DHT22;31826;53.572;10.170;2023-05-10T04:36:00;11.60;97.20
46091;DHT22;31826;53.572;10.170;2023-05-10T04:38:26;11.70;97.00
46091;DHT22;31826;53.572;10.170;2023-05-10T04:40:52;11.60;97.20
46091;DHT22;31826;53.572;10.170;2023-05-10T04:43:18;11.70;97.40
46091;DHT22;31826;53.572;10.170;2023-05-10T04:45:44;11.80;97.60
46091;DHT22;31826;53.572;10.170;2023-05-10T04:48:09;11.80;97.40
46091;DHT22;31826;53.572;10.170;2023-05-10T04:50:35;11.80;97.50
46091;DHT22;31826;53.572;10.170;2023-05-10T04:53:00;11.80;97.50
46091;DHT22;31826;53.572;10.170;2023-05-10T04:55:26;11.80;97.40
46091;DHT22;31826;53.572;10.170;2023-05-10T04:57:52;11.90;97.40
46091;DHT22;31826;53.572;10.170;2023-05-10T05:00:20;11.90;97.60
46091;DHT22;31826;53.572;10.170;2023-05-10T05:02:46;12.00;97.30
46091;DHT22;31826;53.572;10.170;2023-05-10T05:05:12;12.00;97.10
46091;DHT22;31826;53.572;10.170;2023-05-10T05:07:38;12.10;97.50
46091;DHT22;31826;53.572;10.170;2023-05-10T05:10:08;12.00;97.20
46091;DHT22;31826;53.572;10.170;2023-05-10T05:12:34;12.00;97.40
46091;DHT22;31826;53.572;10.170;2023-05-10T05:15:00;12.10;97.70
46091;DHT22;31826;53.572;10.170;2023-05-10T05:17:26;12.30;97.30
46091;DHT22;31826;53.572;10.170;2023-05-10T05:19:52;12.40;97.30
46091;DHT22;31826;53.572;10.170;2023-05-10T05:22:18;12.50;96.80
46091;DHT22;31826;53.572;10.170;2023-05-10T05:24:45;12.30;96.70
46091;DHT22;31826;53.572;10.170;2023-05-10T05:27:11;12.20;96.80
46091;DHT22;31826;53.572;10.170;2023-05-10T05:29:36;12.30;97.20
46091;DHT22;31826;53.572;10.170;2023-05-10T05:32:02;12.40;96.90
46091;DHT22;31826;53.572;10.170;2023-05-10T05:34:28;12.50;97.20
46091;DHT22;31826;53.572;10.170;2023-05-10T05:36:54;12.70;96.80
46091;DHT22;31826;53.572;10.170;2023-05-10T05:39:19;12.70;96.60
46091;DHT22;31826;53.572;10.170;2023-05-10T05:41:45;12.60;96.40
46091;DHT22;31826;53.572;10.170;2023-05-10T05:44:11;12.70;96.50
46091;DHT22;31826;53.572;10.170;2023-05-10T05:46:37;12.80;96.70
46091;DHT22;31826;53.572;10.170;2023-05-10T05:49:03;12.90;96.30
46091;DHT22;31826;53.572;10.170;2023-05-10T05:51:29;12.80;95.90
46091;DHT22;31826;53.572;10.170;2023-05-10T05:53:55;12.90;96.30
46091;DHT22;31826;53.572;10.170;2023-05-10T05:56:20;12.90;96.00
46091;DHT22;31826;53.572;10.170;2023-05-10T05:58:50;12.90;96.60
46091;DHT22;31826;53.572;10.170;2023-05-10T06:01:16;13.00;95.90
46091;DHT22;31826;53.572;10.170;2023-05-10T06:03:42;13.00;95.80
46091;DHT22;31826;53.572;10.170;2023-05-10T06:06:07;13.00;96.10
46091;DHT22;31826;53.572;10.170;2023-05-10T06:08:33;13.00;96.00
46091;DHT22;31826;53.572;10.170;2023-05-10T06:11:00;13.00;95.90
46091;DHT22;31826;53.572;10.170;2023-05-10T06:13:25;13.20;96.50
46091;DHT22;31826;53.572;10.170;2023-05-10T06:16:00;13.30;96.00
46091;DHT22;31826;53.572;10.170;2023-05-10T06:18:25;13.30;95.70
46091;DHT22;31826;53.572;10.170;2023-05-10T06:20:51;13.40;96.00
46091;DHT22;31826;53.572;10.170;2023-05-10T06:23:17;13.60;95.40
46091;DHT22;31826;53.572;10.170;2023-05-10T06:25:43;13.70;95.70
46091;DHT22;31826;53.572;10.170;2023-05-10T06:28:08;13.70;95.00
46091;DHT22;31826;53.572;10.170;2023-05-10T06:30:36;13.60;95.30
46091;DHT22;31826;53.572;10.170;2023-05-10T06:33:02;13.80;95.60
46091;DHT22;31826;53.572;10.170;2023-05-10T06:35:28;13.80;95.30
46091;DHT22;31826;53.572;10.170;2023-05-10T06:37:54;13.90;95.30
46091;DHT22;31826;53.572;10.170;2023-05-10T06:40:19;13.90;95.20
46091;DHT22;31826;53.572;10.170;2023-05-10T06:42:46;14.20;95.10
46091;DHT22;31826;53.572;10.170;2023-05-10T06:45:12;14.40;94.50
46091;DHT22;31826;53.572;10.170;2023-05-10T06:47:38;14.40;94.30
46091;DHT22;31826;53.572;10.170;2023-05-10T06:50:04;14.30;94.60
46091;DHT22;31826;53.572;10.170;2023-05-10T06:52:29;14.60;94.40
46091;DHT22;31826;53.572;10.170;2023-05-10T06:54:55;14.80;94.20
46091;DHT22;31826;53.572;10.170;2023-05-10T06:57:21;14.80;94.10
46091;DHT22;31826;53.572;10.170;2023-05-10T06:59:46;14.70;94.30
46091;DHT22;31826;53.572;10.170;2023-05-10T07:02:12;14.50;94.40
46091;DHT22;31826;53.572;10.170;2023-05-10T07:04:40;14.40;94.10
46091;DHT22;31826;53.572;10.170;2023-05-10T07:07:05;14.30;94.50
46091;DHT22;31826;53.572;10.170;2023-05-10T07:09:31;14.30;94.50
46091;DHT22;31826;53.572;10.170;2023-05-10T07:14:26;14.80;94.40
46091;DHT22;31826;53.572;10.170;2023-05-10T07:16:52;14.80;94.10
46091;DHT22;31826;53.572;10.170;2023-05-10T07:19:17;14.90;94.10
46091;DHT22;31826;53.572;10.170;2023-05-10T07:21:43;14.90;94.00
46091;DHT22;31826;53.572;10.170;2023-05-10T07:24:09;14.90;93.90
46091;DHT22;31826;53.572;10.170;2023-05-10T07:26:35;15.10;94.00
46091;DHT22;31826;53.572;10.170;2023-05-10T07:29:01;15.20;94.10
46091;DHT22;31826;53.572;10.170;2023-05-10T07:31:27;15.00;93.60
46091;DHT22;31826;53.572;10.170;2023-05-10T07:33:53;15.10;93.50
46091;DHT22;31826;53.572;10.170;2023-05-10T07:36:19;15.00;93.60
46091;DHT22;31826;53.572;10.170;2023-05-10T07:38:44;15.10;93.70
46091;DHT22;31826;53.572;10.170;2023-05-10T07:41:12;15.20;94.30
46091;DHT22;31826;53.572;10.170;2023-05-10T07:43:37;15.50;94.00
46091;DHT22;31826;53.572;10.170;2023-05-10T07:46:03;15.60;93.60
46091;DHT22;31826;53.572;10.170;2023-05-10T07:48:29;15.60;93.10
46091;DHT22;31826;53.572;10.170;2023-05-10T07:50:54;15.80;93.30
46091;DHT22;31826;53.572;10.170;2023-05-10T07:53:20;16.00;94.00
46091;DHT22;31826;53.572;10.170;2023-05-10T07:55:55;16.40;93.10
46091;DHT22;31826;53.572;10.170;2023-05-10T07:58:23;16.30;92.70
46091;DHT22;31826;53.572;10.170;2023-05-10T08:00:49;16.30;93.10
46091;DHT22;31826;53.572;10.170;2023-05-10T08:03:15;16.20;92.60
46091;DHT22;31826;53.572;10.170;2023-05-10T08:05:40;16.10;92.70
46091;DHT22;31826;53.572;10.170;2023-05-10T08:08:06;15.80;92.30
46091;DHT22;31826;53.572;10.170;2023-05-10T08:10:32;15.80;93.20
46091;DHT22;31826;53.572;10.170;2023-05-10T08:12:58;15.70;92.90
46091;DHT22;31826;53.572;10.170;2023-05-10T08:15:24;15.70;92.90
46091;DHT22;31826;53.572;10.170;2023-05-10T08:17:52;15.70;92.90
46091;DHT22;31826;53.572;10.170;2023-05-10T08:20:18;15.70;93.30
46091;DHT22;31826;53.572;10.170;2023-05-10T08:22:47;15.70;93.20
46091;DHT22;31826;53.572;10.170;2023-05-10T08:25:13;15.50;93.20
46091;DHT22;31826;53.572;10.170;2023-05-10T08:27:38;15.60;94.10
46091;DHT22;31826;53.572;10.170;2023-05-10T08:30:05;15.60;93.50
46091;DHT22;31826;53.572;10.170;2023-05-10T08:32:31;15.70;93.70
46091;DHT22;31826;53.572;10.170;2023-05-10T08:34:57;15.80;93.60
46091;DHT22;31826;53.572;10.170;2023-05-10T08:37:23;16.00;92.90
46091;DHT22;31826;53.572;10.170;2023-05-10T08:39:49;16.10;93.50
46091;DHT22;31826;53.572;10.170;2023-05-10T08:42:19;16.10;93.00
46091;DHT22;31826;53.572;10.170;2023-05-10T08:44:48;15.90;93.00
46091;DHT22;31826;53.572;10.170;2023-05-10T08:47:15;15.90;93.30
46091;DHT22;31826;53.572;10.170;2023-05-10T08:49:41;15.80;93.40
46091;DHT22;31826;53.572;10.170;2023-05-10T08:52:10;15.80;93.70
46091;DHT22;31826;53.572;10.170;2023-05-10T08:54:38;15.90;93.70
46091;DHT22;31826;53.572;10.170;2023-05-10T08:57:04;16.20;93.30
46091;DHT22;31826;53.572;10.170;2023-05-10T08:59:30;16.30;93.00
46091;DHT22;31826;53.572;10.170;2023-05-10T09:01:59;16.30;92.90
46091;DHT22;31826;53.572;10.170;2023-05-10T09:04:25;16.40;93.70
46091;DHT22;31826;53.572;10.170;2023-05-10T09:06:51;16.70;93.20
46091;DHT22;31826;53.572;10.170;2023-05-10T09:09:18;16.70;92.70
46091;DHT22;31826;53.572;10.170;2023-05-10T09:11:45;16.60;92.90
46091;DHT22;31826;53.572;10.170;2023-05-10T09:14:12;16.50;92.80
46091;DHT22;31826;53.572;10.170;2023-05-10T09:16:39;16.40;93.20
46091;DHT22;31826;53.572;10.170;2023-05-10T09:19:05;16.30;93.80
46091;DHT22;31826;53.572;10.170;2023-05-10T09:21:33;16.30;93.70
46091;DHT22;31826;53.572;10.170;2023-05-10T09:24:03;16.40;94.00
46091;DHT22;31826;53.572;10.170;2023-05-10T09:26:29;16.50;94.00
46091;DHT22;31826;53.572;10.170;2023-05-10T09:28:57;16.60;93.60
46091;DHT22;31826;53.572;10.170;2023-05-10T09:31:24;16.70;93.60
46091;DHT22;31826;53.572;10.170;2023-05-10T09:33:53;16.60;94.10
46091;DHT22;31826;53.572;10.170;2023-05-10T09:36:19;16.60;94.20
46091;DHT22;31826;53.572;10.170;2023-05-10T09:41:19;16.60;94.50
46091;DHT22;31826;53.572;10.170;2023-05-10T09:43:46;16.40;94.50
46091;DHT22;31826;53.572;10.170;2023-05-10T09:46:12;16.30;94.00
46091;DHT22;31826;53.572;10.170;2023-05-10T09:48:45;16.30;94.50
46091;DHT22;31826;53.572;10.170;2023-05-10T09:51:21;16.40;94.90
46091;DHT22;31826;53.572;10.170;2023-05-10T09:53:47;16.40;94.50
46091;DHT22;31826;53.572;10.170;2023-05-10T09:56:33;16.50;94.30
46091;DHT22;31826;53.572;10.170;2023-05-10T09:59:03;16.30;94.90
46091;DHT22;31826;53.572;10.170;2023-05-10T10:01:29;16.00;95.20
46091;DHT22;31826;53.572;10.170;2023-05-10T10:03:56;15.90;95.60
46091;DHT22;31826;53.572;10.170;2023-05-10T10:06:23;15.90;95.90
46091;DHT22;31826;53.572;10.170;2023-05-10T10:08:50;15.60;95.50
46091;DHT22;31826;53.572;10.170;2023-05-10T10:11:17;15.60;96.40
46091;DHT22;31826;53.572;10.170;2023-05-10T10:13:43;15.80;96.70
46091;DHT22;31826;53.572;10.170;2023-05-10T10:16:09;15.70;97.10
46091;DHT22;31826;53.572;10.170;2023-05-10T10:18:36;15.80;97.70
46091;DHT22;31826;53.572;10.170;2023-05-10T10:21:08;15.80;98.00
46091;DHT22;31826;53.572;10.170;2023-05-10T10:23:37;15.60;99.10
46091;DHT22;31826;53.572;10.170;2023-05-10T10:26:04;15.50;99.90
46091;DHT22;31826;53.572;10.170;2023-05-10T10:32:00;15.40;99.90
46091;DHT22;31826;53.572;10.170;2023-05-10T10:34:31;15.40;99.90
46091;DHT22;31826;53.572;10.170;2023-05-10T10:36:57;15.30;99.90
46091;DHT22;31826;53.572;10.170;2023-05-10T10:39:29;15.40;99.90
46091;DHT22;31826;53.572;10.170;2023-05-10T10:41:56;15.20;99.90
46091;DHT22;31826;53.572;10.170;2023-05-10T10:44:23;15.10;99.90
46091;DHT22;31826;53.572;10.170;2023-05-10T10:55:16;14.70;99.90
46091;DHT22;31826;53.572;10.170;2023-05-10T10:57:56;14.60;99.90
46091;DHT22;31826;53.572;10.170;2023-05-10T11:00:32;14.50;99.90
46091;DHT22;31826;53.572;10.170;2023-05-10T11:03:03;14.40;99.90
46091;DHT22;31826;53.572;10.170;2023-05-10T11:08:27;14.40;99.90
46091;DHT22;31826;53.572;10.170;2023-05-10T11:11:04;14.50;99.90
46091;DHT22;31826;53.572;10.170;2023-05-10T11:13:37;14.40;99.90
46091;DHT22;31826;53.572;10.170;2023-05-10T11:19:15;14.40;99.90
46091;DHT22;31826;53.572;10.170;2023-05-10T11:21:47;14.60;99.90
46091;DHT22;31826;53.572;10.170;2023-05-10T11:24:14;14.60;99.90
46091;DHT22;31826;53.572;10.170;2023-05-10T11:26:41;14.60;99.90
46091;DHT22;31826;53.572;10.170;2023-05-10T11:29:07;14.50;99.90
46091;DHT22;31826;53.572;10.170;2023-05-10T11:31:33;14.40;99.90
46091;DHT22;31826;53.572;10.170;2023-05-10T11:34:00;14.50;99.90
46091;DHT22;31826;53.572;10.170;2023-05-10T11:36:32;14.50;99.90
46091;DHT22;31826;53.572;10.170;2023-05-10T11:38:58;14.60;99.90
46091;DHT22;31826;53.572;10.170;2023-05-10T11:41:24;14.60;99.90
46091;DHT22;31826;53.572;10.170;2023-05-10T11:43:53;14.60;99.90
46091;DHT22;31826;53.572;10.170;2023-05-10T11:46:23;14.50;99.90
46091;DHT22;31826;53.572;10.170;2023-05-10T11:48:51;14.40;99.90
46091;DHT22;31826;53.572;10.170;2023-05-10T11:51:24;14.70;99.90
46091;DHT22;31826;53.572;10.170;2023-05-10T11:53:53;14.80;99.90
46091;DHT22;31826;53.572;10.170;2023-05-10T11:56:19;14.80;99.90
46091;DHT22;31826;53.572;10.170;2023-05-10T11:58:55;15.10;99.90
46091;DHT22;31826;53.572;10.170;2023-05-10T12:01:21;14.80;99.90
46091;DHT22;31826;53.572;10.170;2023-05-10T12:03:49;14.90;99.90
46091;DHT22;31826;53.572;10.170;2023-05-10T12:06:15;14.80;99.90
46091;DHT22;31826;53.572;10.170;2023-05-10T12:08:45;14.60;99.90
46091;DHT22;31826;53.572;10.170;2023-05-10T12:11:12;14.60;99.90
46091;DHT22;31826;53.572;10.170;2023-05-10T12:13:43;14.90;99.90
46091;DHT22;31826;53.572;10.170;2023-05-10T12:16:18;14.90;99.90
46091;DHT22;31826;53.572;10.170;2023-05-10T12:18:44;15.00;99.90
46091;DHT22;31826;53.572;10.170;2023-05-10T12:21:11;15.00;99.90
46091;DHT22;31826;53.572;10.170;2023-05-10T12:23:38;15.10;99.90
46091;DHT22;31826;53.572;10.170;2023-05-10T12:26:04;15.00;99.90
46091;DHT22;31826;53.572;10.170;2023-05-10T12:28:31;14.90;99.90
46091;DHT22;31826;53.572;10.170;2023-05-10T12:30:57;14.70;99.90
46091;DHT22;31826;53.572;10.170;2023-05-10T12:33:23;14.80;99.90
46091;DHT22;31826;53.572;10.170;2023-05-10T12:35:53;14.90;99.90
46091;DHT22;31826;53.572;10.170;2023-05-10T12:38:27;14.90;99.90
46091;DHT22;31826;53.572;10.170;2023-05-10T12:40:59;15.00;99.90
46091;DHT22;31826;53.572;10.170;2023-05-10T12:43:25;15.10;99.90
46091;DHT22;31826;53.572;10.170;2023-05-10T12:45:51;15.40;99.90
46091;DHT22;31826;53.572;10.170;2023-05-10T12:48:16;15.40;99.90
46091;DHT22;31826;53.572;10.170;2023-05-10T12:50:42;15.50;99.90
46091;DHT22;31826;53.572;10.170;2023-05-10T12:53:08;15.50;99.90
46091;DHT22;31826;53.572;10.170;2023-05-10T12:55:34;15.30;99.90
46091;DHT22;31826;53.572;10.170;2023-05-10T12:57:59;15.20;99.90
46091;DHT22;31826;53.572;10.170;2023-05-10T13:00:25;15.40;99.90
46091;DHT22;31826;53.572;10.170;2023-05-10T13:02:51;15.70;99.90
46091;DHT22;31826;53.572;10.170;2023-05-10T13:05:17;15.50;99.90
46091;DHT22;31826;53.572;10.170;2023-05-10T13:07:43;15.40;99.90
46091;DHT22;31826;53.572;10.170;2023-05-10T13:10:09;15.30;99.90
46091;DHT22;31826;53.572;10.170;2023-05-10T13:12:35;15.20;99.90
46091;DHT22;31826;53.572;10.170;2023-05-10T13:15:02;15.20;99.90
46091;DHT22;31826;53.572;10.170;2023-05-10T13:17:28;15.30;99.90
46091;DHT22;31826;53.572;10.170;2023-05-10T13:19:54;15.30;99.90
46091;DHT22;31826;53.572;10.170;2023-05-10T13:22:20;15.40;99.90
46091;DHT22;31826;53.572;10.170;2023-05-10T13:24:46;15.60;99.90
46091;DHT22;31826;53.572;10.170;2023-05-10T13:27:11;15.60;99.90
46091;DHT22;31826;53.572;10.170;2023-05-10T13:29:37;15.50;99.90
46091;DHT22;31826;53.572;10.170;2023-05-10T13:32:03;15.40;99.90
46091;DHT22;31826;53.572;10.170;2023-05-10T13:34:29;15.40;99.90
46091;DHT22;31826;53.572;10.170;2023-05-10T13:36:54;15.30;99.90
46091;DHT22;31826;53.572;10.170;2023-05-10T13:39:21;15.30;99.90
46091;DHT22;31826;53.572;10.170;2023-05-10T13:41:47;15.30;99.90
46091;DHT22;31826;53.572;10.170;2023-05-10T13:44:14;15.40;99.90
46091;DHT22;31826;53.572;10.170;2023-05-10T13:46:43;15.40;99.90
46091;DHT22;31826;53.572;10.170;2023-05-10T13:49:09;15.70;99.90
46091;DHT22;31826;53.572;10.170;2023-05-10T13:51:35;15.80;99.90
46091;DHT22;31826;53.572;10.170;2023-05-10T13:54:02;15.90;99.90
46091;DHT22;31826;53.572;10.170;2023-05-10T13:56:28;15.80;99.90
46091;DHT22;31826;53.572;10.170;2023-05-10T13:58:53;15.90;99.90
46091;DHT22;31826;53.572;10.170;2023-05-10T14:01:19;15.80;99.90
46091;DHT22;31826;53.572;10.170;2023-05-10T14:03:45;16.00;99.90
46091;DHT22;31826;53.572;10.170;2023-05-10T14:06:10;16.10;99.90
46091;DHT22;31826;53.572;10.170;2023-05-10T14:08:36;16.10;99.90
46091;DHT22;31826;53.572;10.170;2023-05-10T14:11:02;16.40;99.90
46091;DHT22;31826;53.572;10.170;2023-05-10T14:13:28;16.20;99.90
46091;DHT22;31826;53.572;10.170;2023-05-10T14:15:54;16.10;99.90
46091;DHT22;31826;53.572;10.170;2023-05-10T14:18:20;15.90;99.90
46091;DHT22;31826;53.572;10.170;2023-05-10T14:20:46;16.00;99.90
46091;DHT22;31826;53.572;10.170;2023-05-10T14:23:12;16.10;99.90
46091;DHT22;31826;53.572;10.170;2023-05-10T14:25:41;16.20;99.90
46091;DHT22;31826;53.572;10.170;2023-05-10T14:28:06;16.30;99.90
46091;DHT22;31826;53.572;10.170;2023-05-10T14:30:32;16.10;99.90
46091;DHT22;31826;53.572;10.170;2023-05-10T14:33:00;16.00;99.90
46091;DHT22;31826;53.572;10.170;2023-05-10T14:35:27;15.90;99.90
46091;DHT22;31826;53.572;10.170;2023-05-10T14:37:53;16.00;99.90
46091;DHT22;31826;53.572;10.170;2023-05-10T14:40:19;15.90;99.90
46091;DHT22;31826;53.572;10.170;2023-05-10T14:42:44;15.80;99.90
46091;DHT22;31826;53.572;10.170;2023-05-10T14:45:11;16.00;99.90
46091;DHT22;31826;53.572;10.170;2023-05-10T14:47:37;16.00;99.90
46091;DHT22;31826;53.572;10.170;2023-05-10T14:50:03;16.00;99.90
46091;DHT22;31826;53.572;10.170;2023-05-10T14:52:29;16.20;99.90
46091;DHT22;31826;53.572;10.170;2023-05-10T14:54:54;16.20;99.90
46091;DHT22;31826;53.572;10.170;2023-05-10T14:57:20;16.30;99.90
46091;DHT22;31826;53.572;10.170;2023-05-10T14:59:46;16.50;99.90
46091;DHT22;31826;53.572;10.170;2023-05-10T15:02:12;16.40;99.90
46091;DHT22;31826;53.572;10.170;2023-05-10T15:04:38;16.40;99.90
46091;DHT22;31826;53.572;10.170;2023-05-10T15:07:03;16.40;99.90
46091;DHT22;31826;53.572;10.170;2023-05-10T15:09:29;16.60;99.90
46091;DHT22;31826;53.572;10.170;2023-05-10T15:11:55;16.70;99.90
46091;DHT22;31826;53.572;10.170;2023-05-10T15:14:22;16.50;99.90
46091;DHT22;31826;53.572;10.170;2023-05-10T15:16:47;16.40;99.90
46091;DHT22;31826;53.572;10.170;2023-05-10T15:19:13;16.40;99.90
46091;DHT22;31826;53.572;10.170;2023-05-10T15:21:39;16.50;99.90
46091;DHT22;31826;53.572;10.170;2023-05-10T15:24:08;16.50;99.90
46091;DHT22;31826;53.572;10.170;2023-05-10T15:26:34;16.60;99.90
46091;DHT22;31826;53.572;10.170;2023-05-10T15:28:59;16.70;99.90
46091;DHT22;31826;53.572;10.170;2023-05-10T15:31:25;16.70;99.90
46091;DHT22;31826;53.572;10.170;2023-05-10T15:33:57;16.70;99.90
46091;DHT22;31826;53.572;10.170;2023-05-10T15:36:23;16.80;99.90
46091;DHT22;31826;53.572;10.170;2023-05-10T15:38:49;16.80;99.90
46091;DHT22;31826;53.572;10.170;2023-05-10T15:41:14;16.90;99.90
46091;DHT22;31826;53.572;10.170;2023-05-10T15:43:40;16.90;99.90
46091;DHT22;31826;53.572;10.170;2023-05-10T15:46:07;17.00;99.90
46091;DHT22;31826;53.572;10.170;2023-05-10T15:48:32;16.80;99.90
46091;DHT22;31826;53.572;10.170;2023-05-10T15:50:58;16.70;99.90
46091;DHT22;31826;53.572;10.170;2023-05-10T15:53:24;16.70;99.90